Time;durP1;ratioP1;P1;durP2;ratioP2;P2;SDS_P1;SDS_P2;PMS_P1;PMS_P2;Temp;Humidity;BMP_temperature;BMP_pressure;BME280_temperature;BME280_humidity;BME280_pressure;Samples;Min_cycle;Max_cycle;Signal;HPM_P1;HPM_P2
2023/03/13 00:03:57;;;;;;;11.43;2.53;;;;;;;;;;8256491;28;20034;-76
2023/03/13 00:07:57;;;;;;;10.02;2.42;;;;;;;;;;8261940;28;20029;-76
2023/03/13 00:11:57;;;;;;;9.75;2.30;;;;;;;;;;8252856;28;20022;-76
2023/03/13 00:16:01;;;;;;;12.48;2.40;;;;;;;;;;8247064;28;20053;-76
2023/03/13 00:20:01;;;;;;;8.07;2.10;;;;;;;;;;8261770;28;20030;-75
2023/03/13 00:24:01;;;;;;;11.43;2.33;;;;;;;;;;8255634;28;20742;-76
2023/03/13 00:28:02;;;;;;;7.30;1.83;;;;;;;;;;8252169;28;20030;-75
2023/03/13 00:32:02;;;;;;;11.10;2.00;;;;;;;;;;8252363;28;20274;-76
2023/03/13 00:36:04;;;;;;;12.93;3.50;;;;;;;;;;8251752;28;20052;-76
2023/03/13 00:40:05;;;;;;;11.80;1.88;;;;;;;;;;8257211;28;20033;-76
2023/03/13 00:44:06;;;;;;;12.18;2.50;;;;;;;;;;8249178;28;21149;-76
2023/03/13 00:48:06;;;;;;;6.97;2.23;;;;;;;;;;8268944;28;20431;-76
2023/03/13 00:52:06;;;;;;;10.67;2.33;;;;;;;;;;8254176;28;20063;-76
2023/03/13 00:56:08;;;;;;;9.50;1.80;;;;;;;;;;8242437;28;20037;-76
2023/03/13 01:00:08;;;;;;;8.95;1.83;;;;;;;;;;8257119;28;20030;-76
2023/03/13 01:04:10;;;;;;;13.15;2.15;;;;;;;;;;8257716;28;20034;-77
2023/03/13 01:08:10;;;;;;;8.85;2.45;;;;;;;;;;8274531;28;20022;-76
2023/03/13 01:12:11;;;;;;;11.43;2.17;;;;;;;;;;8264858;28;20035;-76
2023/03/13 01:16:12;;;;;;;8.53;1.83;;;;;;;;;;8255420;28;20049;-76
2023/03/13 01:20:12;;;;;;;7.97;1.80;;;;;;;;;;8253974;28;20964;-76
2023/03/13 01:24:12;;;;;;;5.38;1.73;;;;;;;;;;8259389;28;20014;-76
2023/03/13 01:28:12;;;;;;;4.82;1.50;;;;;;;;;;8281785;28;20037;-75
2023/03/13 01:32:13;;;;;;;9.95;2.30;;;;;;;;;;8257514;28;20154;-75
2023/03/13 01:36:13;;;;;;;8.93;1.83;;;;;;;;;;8251739;28;20036;-76
2023/03/13 01:40:14;;;;;;;10.05;2.42;;;;;;;;;;8255891;28;20033;-76
2023/03/13 01:44:23;;;;;;;11.15;2.22;;;;;;;;;;8252087;28;20448;-76
2023/03/13 01:48:49;;;;;;;6.47;1.80;;;;;;;;;;8252193;28;20069;-76
2023/03/13 01:52:50;;;;;;;5.70;1.45;;;;;;;;;;8248669;28;20052;-76
2023/03/13 01:56:50;;;;;;;8.20;1.52;;;;;;;;;;8265004;28;20069;-76
2023/03/13 02:00:50;;;;;;;6.65;1.90;;;;;;;;;;8248884;28;20046;-76
2023/03/13 02:04:53;;;;;;;6.80;1.65;;;;;;;;;;8255755;28;20809;-76
2023/03/13 02:08:55;;;;;;;7.63;1.80;;;;;;;;;;8261479;28;20032;-76
2023/03/13 02:12:56;;;;;;;5.88;1.58;;;;;;;;;;8252056;28;20780;-76
2023/03/13 02:16:56;;;;;;;5.25;1.40;;;;;;;;;;8260314;28;20654;-76
2023/03/13 02:21:01;;;;;;;4.28;1.50;;;;;;;;;;8264718;28;20987;-76
2023/03/13 02:25:04;;;;;;;4.28;1.20;;;;;;;;;;8245231;28;20022;-76
2023/03/13 02:29:04;;;;;;;4.20;1.80;;;;;;;;;;8248128;28;20026;-76
2023/03/13 02:33:05;;;;;;;3.55;1.20;;;;;;;;;;8259642;28;20080;-76
2023/03/13 02:37:09;;;;;;;12.00;1.50;;;;;;;;;;8251266;28;20022;-76
2023/03/13 02:41:10;;;;;;;7.05;1.75;;;;;;;;;;8254666;28;20092;-76
2023/03/13 02:45:14;;;;;;;5.18;1.35;;;;;;;;;;8247612;28;20072;-76
2023/03/13 02:49:32;;;;;;;2.40;1.10;;;;;;;;;;8249675;28;20022;-76
2023/03/13 02:53:33;;;;;;;1.92;0.88;;;;;;;;;;8247437;28;20037;-76
2023/03/13 02:57:34;;;;;;;1.80;0.90;;;;;;;;;;8264118;28;20040;-76
2023/03/13 03:01:34;;;;;;;1.77;0.70;;;;;;;;;;8247283;28;20703;-76
2023/03/13 03:05:34;;;;;;;3.15;0.90;;;;;;;;;;8244096;28;20025;-76
2023/03/13 03:09:35;;;;;;;2.38;0.90;;;;;;;;;;8242264;28;20042;-76
2023/03/13 03:13:35;;;;;;;1.50;0.80;;;;;;;;;;8244078;28;20080;-76
2023/03/13 03:17:36;;;;;;;0.98;0.70;;;;;;;;;;8246054;28;20036;-76
2023/03/13 03:21:37;;;;;;;1.35;0.75;;;;;;;;;;8243116;28;20029;-76
2023/03/13 03:25:37;;;;;;;2.63;0.60;;;;;;;;;;8255072;28;20057;-76
2023/03/13 03:29:37;;;;;;;1.35;0.68;;;;;;;;;;8254292;28;20037;-76
2023/03/13 03:33:38;;;;;;;0.50;0.50;;;;;;;;;;8258712;28;20027;-75
2023/03/13 03:37:38;;;;;;;0.50;0.50;;;;;;;;;;8263648;28;20048;-75
2023/03/13 03:41:38;;;;;;;1.20;0.50;;;;;;;;;;8261243;28;20026;-76
2023/03/13 03:45:38;;;;;;;2.17;0.73;;;;;;;;;;8256993;28;20038;-76
2023/03/13 03:49:39;;;;;;;1.30;0.70;;;;;;;;;;8250202;28;20459;-76
2023/03/13 03:53:39;;;;;;;1.63;0.63;;;;;;;;;;8252398;28;20104;-76
2023/03/13 03:57:39;;;;;;;0.68;0.52;;;;;;;;;;8267629;28;20381;-76
2023/03/13 04:01:39;;;;;;;0.85;0.75;;;;;;;;;;8252628;28;20166;-76
2023/03/13 04:05:40;;;;;;;0.90;0.80;;;;;;;;;;8256107;28;20114;-75
2023/03/13 04:09:40;;;;;;;1.75;1.10;;;;;;;;;;8252628;28;20113;-76
2023/03/13 04:13:40;;;;;;;1.33;1.10;;;;;;;;;;8254148;28;20041;-75
2023/03/13 04:17:40;;;;;;;2.53;1.48;;;;;;;;;;8248893;28;20042;-75
2023/03/13 04:21:40;;;;;;;1.80;1.25;;;;;;;;;;8251360;28;20621;-75
2023/03/13 04:25:41;;;;;;;2.50;1.23;;;;;;;;;;8249519;28;20032;-76
2023/03/13 04:29:41;;;;;;;2.30;1.98;;;;;;;;;;8250497;28;20026;-75
2023/03/13 04:33:41;;;;;;;5.43;1.75;;;;;;;;;;8244180;28;20042;-76
2023/03/13 04:37:42;;;;;;;3.28;1.52;;;;;;;;;;8263925;28;20033;-76
2023/03/13 04:41:42;;;;;;;2.75;1.48;;;;;;;;;;8250992;28;20905;-75
2023/03/13 04:45:42;;;;;;;10.30;1.90;;;;;;;;;;8249574;28;20022;-75
2023/03/13 04:49:42;;;;;;;3.60;2.30;;;;;;;;;;8247799;28;20030;-76
2023/03/13 04:53:43;;;;;;;4.57;2.17;;;;;;;;;;8254549;28;20026;-77
2023/03/13 04:57:43;;;;;;;3.08;1.80;;;;;;;;;;8246895;28;20403;-76
2023/03/13 05:01:43;;;;;;;3.00;2.05;;;;;;;;;;8247332;28;20038;-76
2023/03/13 05:05:43;;;;;;;3.15;1.90;;;;;;;;;;8249885;28;20546;-76
2023/03/13 05:09:43;;;;;;;3.47;2.35;;;;;;;;;;8256435;28;20029;-77
2023/03/13 05:13:44;;;;;;;3.17;2.72;;;;;;;;;;8248906;28;20025;-76
2023/03/13 05:17:44;;;;;;;4.85;2.55;;;;;;;;;;8244763;28;20727;-76
2023/03/13 05:21:44;;;;;;;4.40;2.00;;;;;;;;;;8250570;28;20034;-76
2023/03/13 05:25:44;;;;;;;3.70;1.90;;;;;;;;;;8246490;28;20112;-75
2023/03/13 05:29:44;;;;;;;1.95;1.67;;;;;;;;;;8245200;28;20018;-76
2023/03/13 05:33:44;;;;;;;2.08;1.45;;;;;;;;;;8252427;28;20037;-76
2023/03/13 05:37:45;;;;;;;4.25;1.75;;;;;;;;;;8249502;28;20228;-76
2023/03/13 05:41:45;;;;;;;2.97;1.30;;;;;;;;;;8261743;28;20303;-76
2023/03/13 05:45:45;;;;;;;1.67;1.27;;;;;;;;;;8253920;28;20026;-76
2023/03/13 05:49:46;;;;;;;2.50;1.50;;;;;;;;;;8237528;28;20022;-76
2023/03/13 05:53:46;;;;;;;1.25;1.15;;;;;;;;;;8239219;28;20424;-76
2023/03/13 05:57:47;;;;;;;1.40;1.30;;;;;;;;;;8251454;28;20555;-77
2023/03/13 06:01:47;;;;;;;2.10;1.38;;;;;;;;;;8239838;28;20066;-77
2023/03/13 06:05:47;;;;;;;1.27;1.17;;;;;;;;;;8245440;28;20032;-77
2023/03/13 06:09:47;;;;;;;1.30;1.20;;;;;;;;;;8236439;28;20152;-77
2023/03/13 06:13:49;;;;;;;2.13;1.27;;;;;;;;;;8240966;28;20022;-77
2023/03/13 06:17:49;;;;;;;2.17;1.80;;;;;;;;;;8249926;28;20342;-78
2023/03/13 06:21:50;;;;;;;3.00;1.55;;;;;;;;;;8237878;28;20028;-78
2023/03/13 06:25:50;;;;;;;1.35;1.25;;;;;;;;;;8238970;28;20052;-78
2023/03/13 06:29:50;;;;;;;1.00;1.00;;;;;;;;;;8254027;28;20482;-78
2023/03/13 06:33:54;;;;;;;1.75;1.20;;;;;;;;;;8244113;28;20559;-78
2023/03/13 06:37:54;;;;;;;1.30;1.20;;;;;;;;;;8239433;28;20028;-79
2023/03/13 06:41:54;;;;;;;0.95;0.90;;;;;;;;;;8255694;28;20026;-78
2023/03/13 06:45:55;;;;;;;1.30;1.20;;;;;;;;;;8241360;28;20126;-77
2023/03/13 06:49:55;;;;;;;0.93;0.93;;;;;;;;;;8252183;28;20387;-78
2023/03/13 06:53:55;;;;;;;1.10;1.00;;;;;;;;;;8252079;28;20025;-78
2023/03/13 06:57:55;;;;;;;0.95;0.90;;;;;;;;;;8236705;28;20026;-78
2023/03/13 07:01:55;;;;;;;1.00;1.00;;;;;;;;;;8239691;28;20038;-78
2023/03/13 07:05:56;;;;;;;1.45;1.00;;;;;;;;;;8254227;28;20022;-78
2023/03/13 07:09:56;;;;;;;1.58;1.20;;;;;;;;;;8235565;28;20042;-78
2023/03/13 07:14:00;;;;;;;2.83;1.50;;;;;;;;;;8237834;28;20859;-78
2023/03/13 07:18:00;;;;;;;2.97;1.40;;;;;;;;;;8243210;28;20171;-78
2023/03/13 07:22:00;;;;;;;1.98;1.60;;;;;;;;;;8239298;28;20775;-78
2023/03/13 07:26:02;;;;;;;2.17;1.60;;;;;;;;;;8244721;28;20021;-78
2023/03/13 07:30:03;;;;;;;2.63;1.70;;;;;;;;;;8237361;28;20479;-79
2023/03/13 07:34:03;;;;;;;1.98;1.67;;;;;;;;;;8228874;28;20021;-79
2023/03/13 07:38:03;;;;;;;3.73;1.70;;;;;;;;;;8237378;28;20026;-78
2023/03/13 07:42:04;;;;;;;3.50;2.20;;;;;;;;;;8236261;28;20289;-78
2023/03/13 07:46:04;;;;;;;2.20;1.90;;;;;;;;;;8237693;28;20295;-78
2023/03/13 07:50:05;;;;;;;4.60;2.40;;;;;;;;;;8241505;28;20032;-77
2023/03/13 07:54:05;;;;;;;2.40;2.17;;;;;;;;;;8237950;28;20018;-79
2023/03/13 07:58:08;;;;;;;3.15;1.92;;;;;;;;;;8240826;28;20141;-78
2023/03/13 08:02:11;;;;;;;2.28;1.85;;;;;;;;;;8236332;28;20057;-80
2023/03/13 08:06:12;;;;;;;1.80;1.40;;;;;;;;;;8251833;28;20037;-77
2023/03/13 08:10:13;;;;;;;1.70;1.58;;;;;;;;;;8234959;28;20505;-78
2023/03/13 08:14:13;;;;;;;2.60;1.58;;;;;;;;;;8237546;28;20030;-78
2023/03/13 08:18:13;;;;;;;2.08;1.92;;;;;;;;;;8235230;28;20101;-78
2023/03/13 08:22:13;;;;;;;2.30;1.98;;;;;;;;;;8236924;28;20022;-77
2023/03/13 08:26:17;;;;;;;1.90;1.65;;;;;;;;;;8253658;28;20067;-78
2023/03/13 08:30:17;;;;;;;3.03;1.55;;;;;;;;;;8239145;28;20026;-78
2023/03/13 08:34:18;;;;;;;2.15;1.92;;;;;;;;;;8234897;28;20041;-78
2023/03/13 08:38:18;;;;;;;2.67;1.80;;;;;;;;;;8236923;28;20458;-78
2023/03/13 08:42:18;;;;;;;2.88;1.95;;;;;;;;;;8237569;28;20337;-78
2023/03/13 08:46:18;;;;;;;3.42;2.20;;;;;;;;;;8235888;28;20042;-78
2023/03/13 08:50:19;;;;;;;2.40;2.20;;;;;;;;;;8236710;28;20025;-78
2023/03/13 08:54:19;;;;;;;3.45;2.53;;;;;;;;;;8233787;28;20061;-78
2023/03/13 08:58:19;;;;;;;4.23;2.70;;;;;;;;;;8236868;28;20014;-78
2023/03/13 09:02:19;;;;;;;3.22;2.90;;;;;;;;;;8235521;28;20042;-78
2023/03/13 09:06:20;;;;;;;3.40;2.23;;;;;;;;;;8235682;28;20934;-79
2023/03/13 09:10:20;;;;;;;3.03;2.42;;;;;;;;;;8240559;28;20286;-78
2023/03/13 09:14:23;;;;;;;3.10;2.33;;;;;;;;;;8240936;28;20639;-79
2023/03/13 09:18:24;;;;;;;4.03;2.23;;;;;;;;;;8236726;28;20049;-79
2023/03/13 09:22:24;;;;;;;3.23;2.30;;;;;;;;;;8238298;28;20297;-79
2023/03/13 09:26:25;;;;;;;2.97;2.13;;;;;;;;;;8257122;28;20022;-78
2023/03/13 09:30:25;;;;;;;4.13;2.00;;;;;;;;;;8242661;28;20477;-77
2023/03/13 09:34:28;;;;;;;2.30;1.95;;;;;;;;;;8242224;28;20755;-78
2023/03/13 09:38:28;;;;;;;2.22;1.70;;;;;;;;;;8242298;28;20026;-77
2023/03/13 09:42:43;;;;;;;2.45;1.65;;;;;;;;;;8243075;28;20041;-78
2023/03/13 09:46:52;;;;;;;4.07;1.90;;;;;;;;;;8241202;28;20132;-78
2023/03/13 09:51:19;;;;;;;3.35;1.40;;;;;;;;;;8236470;28;20471;-79
2023/03/13 09:55:21;;;;;;;5.85;1.55;;;;;;;;;;8232146;28;20140;-79
2023/03/13 09:59:33;;;;;;;4.35;1.48;;;;;;;;;;8240724;28;20116;-78
2023/03/13 10:03:37;;;;;;;2.78;1.52;;;;;;;;;;8230813;28;20053;-78
2023/03/13 10:07:37;;;;;;;2.65;1.48;;;;;;;;;;8247693;28;20022;-78
2023/03/13 10:11:43;;;;;;;3.10;1.85;;;;;;;;;;8236495;28;20069;-79
2023/03/13 10:15:51;;;;;;;3.28;1.58;;;;;;;;;;8237795;28;20042;-79
2023/03/13 10:19:54;;;;;;;3.78;1.70;;;;;;;;;;8238873;28;20038;-77
2023/03/13 10:24:11;;;;;;;3.92;1.60;;;;;;;;;;8238691;28;20025;-79
2023/03/13 10:28:12;;;;;;;3.70;1.40;;;;;;;;;;8239476;28;20025;-78
2023/03/13 10:32:14;;;;;;;3.25;1.52;;;;;;;;;;8254396;28;20038;-78
2023/03/13 10:36:14;;;;;;;2.55;1.48;;;;;;;;;;8230541;28;20835;-78
2023/03/13 10:40:26;;;;;;;3.00;1.80;;;;;;;;;;8242601;28;20443;-78
2023/03/13 10:44:32;;;;;;;3.95;1.60;;;;;;;;;;8241267;28;20129;-78
2023/03/13 10:48:35;;;;;;;2.28;1.20;;;;;;;;;;8240050;28;20057;-78
2023/03/13 10:52:38;;;;;;;3.50;1.40;;;;;;;;;;8243624;28;20027;-78
2023/03/13 10:56:39;;;;;;;4.00;1.60;;;;;;;;;;8247594;28;20042;-78
2023/03/13 11:00:40;;;;;;;5.00;1.40;;;;;;;;;;8231276;28;20049;-80
2023/03/13 11:04:40;;;;;;;3.05;1.40;;;;;;;;;;8245341;28;20927;-78
2023/03/13 11:08:41;;;;;;;1.92;1.25;;;;;;;;;;8237563;28;20030;-77
2023/03/13 11:12:45;;;;;;;1.35;1.20;;;;;;;;;;8251205;28;20025;-77
2023/03/13 11:16:48;;;;;;;2.17;1.30;;;;;;;;;;8237656;28;20131;-77
2023/03/13 11:20:48;;;;;;;2.60;1.20;;;;;;;;;;8235095;28;20400;-78
2023/03/13 11:24:54;;;;;;;2.47;1.20;;;;;;;;;;8236624;28;20455;-77
2023/03/13 11:29:10;;;;;;;1.63;1.20;;;;;;;;;;8236269;28;20117;-77
2023/03/13 11:33:16;;;;;;;1.92;1.30;;;;;;;;;;8250211;28;20778;-77
2023/03/13 11:37:18;;;;;;;1.52;1.10;;;;;;;;;;8231640;28;20137;-77
2023/03/13 11:41:18;;;;;;;2.35;1.30;;;;;;;;;;8235853;28;20407;-77
2023/03/13 11:45:37;;;;;;;1.77;1.15;;;;;;;;;;8234497;28;20034;-78
2023/03/13 11:49:43;;;;;;;3.38;1.20;;;;;;;;;;8233987;28;20079;-78
2023/03/13 11:53:57;;;;;;;2.28;1.38;;;;;;;;;;8248116;28;20475;-78
2023/03/13 11:57:57;;;;;;;;;;;;;;;;;;8236782;28;20815;-78
2023/03/13 12:02:16;;;;;;;1.30;1.05;;;;;;;;;;8226752;28;20008;-78
2023/03/13 12:06:23;;;;;;;3.58;1.15;;;;;;;;;;8250014;28;20057;-78
2023/03/13 12:10:29;;;;;;;2.33;1.00;;;;;;;;;;8234689;28;20030;-78
2023/03/13 12:14:29;;;;;;;1.30;1.10;;;;;;;;;;8239725;28;21011;-77
2023/03/13 12:18:31;;;;;;;1.20;0.93;;;;;;;;;;8233150;28;20144;-77
2023/03/13 12:22:37;;;;;;;2.38;0.90;;;;;;;;;;8234645;28;20030;-78
2023/03/13 12:26:38;;;;;;;2.22;1.10;;;;;;;;;;8243569;28;20037;-78
2023/03/13 12:30:43;;;;;;;3.28;1.10;;;;;;;;;;8237161;28;20041;-78
2023/03/13 12:35:02;;;;;;;3.30;1.10;;;;;;;;;;8232630;28;20302;-78
2023/03/13 12:39:21;;;;;;;1.45;1.20;;;;;;;;;;8229930;28;20026;-78
2023/03/13 12:43:24;;;;;;;2.95;1.10;;;;;;;;;;8232474;28;20038;-77
2023/03/13 12:47:31;;;;;;;0.98;0.98;;;;;;;;;;8234969;28;20053;-78
2023/03/13 12:51:40;;;;;;;1.73;1.23;;;;;;;;;;8231607;28;20037;-78
2023/03/13 12:55:49;;;;;;;1.38;1.17;;;;;;;;;;8230517;28;20084;-78
2023/03/13 12:59:55;;;;;;;1.77;1.10;;;;;;;;;;8239824;28;20037;-77
2023/03/13 13:03:57;;;;;;;2.70;1.13;;;;;;;;;;8233072;28;20068;-79
2023/03/13 13:07:57;;;;;;;1.40;1.10;;;;;;;;;;8238464;28;20017;-77
2023/03/13 13:12:03;;;;;;;3.17;1.10;;;;;;;;;;8253414;28;20153;-78
2023/03/13 13:16:04;;;;;;;1.13;0.93;;;;;;;;;;8238618;28;20034;-78
2023/03/13 13:20:23;;;;;;;2.05;1.20;;;;;;;;;;8238909;28;20108;-78
2023/03/13 13:24:40;;;;;;;1.25;1.00;;;;;;;;;;8238521;28;20364;-78
2023/03/13 13:28:42;;;;;;;1.67;1.10;;;;;;;;;;8237775;28;20107;-76
2023/03/13 13:32:50;;;;;;;1.50;1.02;;;;;;;;;;8251650;28;20038;-77
2023/03/13 13:36:50;;;;;;;1.00;0.90;;;;;;;;;;8239713;28;20029;-77
2023/03/13 13:40:57;;;;;;;2.90;1.00;;;;;;;;;;8252409;28;20241;-77
2023/03/13 13:45:13;;;;;;;1.27;1.10;;;;;;;;;;8237603;28;20030;-77
2023/03/13 13:49:17;;;;;;;1.63;1.00;;;;;;;;;;8234381;28;20060;-77
2023/03/13 13:53:30;;;;;;;2.35;1.00;;;;;;;;;;8235296;28;20383;-77
2023/03/13 13:57:34;;;;;;;1.35;0.95;;;;;;;;;;8251622;28;20041;-77
2023/03/13 14:01:34;;;;;;;;;;;;;;;;;;8229681;28;20045;-76
2023/03/13 14:05:38;;;;;;;0.95;0.85;;;;;;;;;;8237159;28;19913;-76
2023/03/13 14:09:39;;;;;;;1.17;1.08;;;;;;;;;;8250742;28;20022;-77
2023/03/13 14:13:39;;;;;;;1.90;1.10;;;;;;;;;;8234281;28;20040;-77
2023/03/13 14:17:44;;;;;;;1.50;0.85;;;;;;;;;;8236863;28;20034;-77
2023/03/13 14:21:44;;;;;;;4.07;1.20;;;;;;;;;;8233811;28;20025;-76
2023/03/13 14:25:46;;;;;;;1.08;1.00;;;;;;;;;;8235980;28;20033;-77
2023/03/13 14:30:00;;;;;;;3.95;1.15;;;;;;;;;;8235902;28;20018;-77
2023/03/13 14:34:01;;;;;;;1.60;1.10;;;;;;;;;;8238579;28;20034;-76
2023/03/13 14:38:02;;;;;;;1.85;0.93;;;;;;;;;;8236977;28;20034;-77
2023/03/13 14:42:02;;;;;;;1.00;0.90;;;;;;;;;;8235104;28;20030;-76
2023/03/13 14:46:12;;;;;;;1.30;0.90;;;;;;;;;;8233940;28;20145;-78
2023/03/13 14:50:14;;;;;;;1.30;1.00;;;;;;;;;;8250077;28;20156;-77
2023/03/13 14:54:25;;;;;;;1.08;0.90;;;;;;;;;;8249510;28;20022;-77
2023/03/13 14:58:27;;;;;;;1.40;1.05;;;;;;;;;;8240463;28;20037;-77
2023/03/13 15:02:29;;;;;;;5.10;1.08;;;;;;;;;;8238540;28;20038;-77
2023/03/13 15:06:29;;;;;;;1.88;1.13;;;;;;;;;;8238694;28;20049;-78
2023/03/13 15:10:36;;;;;;;1.90;1.08;;;;;;;;;;8237193;28;22326;-79
2023/03/13 15:14:38;;;;;;;1.13;0.90;;;;;;;;;;8238096;28;20582;-78
2023/03/13 15:18:38;;;;;;;41.30;3.15;;;;;;;;;;8236394;28;20114;-74
2023/03/13 15:22:39;;;;;;;7.30;1.40;;;;;;;;;;8236867;28;20061;-75
2023/03/13 15:26:39;;;;;;;2.33;1.23;;;;;;;;;;8235383;28;20662;-76
2023/03/13 15:30:40;;;;;;;4.90;1.63;;;;;;;;;;8233116;28;20069;-76
2023/03/13 15:34:40;;;;;;;5.10;1.40;;;;;;;;;;8236450;28;20145;-75
2023/03/13 15:38:40;;;;;;;4.43;1.30;;;;;;;;;;8236998;28;20037;-75
2023/03/13 15:42:40;;;;;;;2.38;0.90;;;;;;;;;;8235540;28;20064;-75
2023/03/13 15:46:41;;;;;;;4.45;1.30;;;;;;;;;;8232110;28;20036;-76
2023/03/13 15:50:41;;;;;;;3.17;1.20;;;;;;;;;;8236235;28;20421;-77
2023/03/13 15:54:42;;;;;;;3.22;1.30;;;;;;;;;;8236569;28;20041;-77
2023/03/13 15:58:43;;;;;;;3.15;0.90;;;;;;;;;;8236201;28;20030;-77
2023/03/13 16:02:43;;;;;;;1.10;0.80;;;;;;;;;;8237361;28;20796;-77
2023/03/13 16:06:43;;;;;;;1.25;0.88;;;;;;;;;;8238323;28;20022;-76
2023/03/13 16:10:44;;;;;;;1.00;0.70;;;;;;;;;;8235981;28;20022;-77
2023/03/13 16:14:44;;;;;;;1.20;0.95;;;;;;;;;;8238816;28;20026;-76
2023/03/13 16:18:45;;;;;;;3.17;0.98;;;;;;;;;;8236835;28;20042;-77
2023/03/13 16:22:45;;;;;;;3.08;0.93;;;;;;;;;;8236752;28;20029;-76
2023/03/13 16:26:45;;;;;;;1.77;0.93;;;;;;;;;;8234108;28;20018;-77
2023/03/13 16:30:49;;;;;;;2.05;0.85;;;;;;;;;;8235850;28;20145;-78
2023/03/13 16:34:49;;;;;;;1.30;0.80;;;;;;;;;;8242186;28;20037;-77
2023/03/13 16:38:50;;;;;;;3.30;1.25;;;;;;;;;;8241863;28;20463;-77
2023/03/13 16:42:50;;;;;;;1.80;1.10;;;;;;;;;;8242407;28;20037;-77
2023/03/13 16:46:50;;;;;;;2.17;0.90;;;;;;;;;;8257565;28;20046;-78
2023/03/13 16:50:51;;;;;;;2.27;1.00;;;;;;;;;;8242603;28;20232;-77
2023/03/13 16:54:51;;;;;;;0.95;0.80;;;;;;;;;;8243387;28;20288;-77
2023/03/13 16:58:52;;;;;;;2.53;1.15;;;;;;;;;;8241705;28;20442;-77
2023/03/13 17:02:52;;;;;;;2.05;1.00;;;;;;;;;;8241485;28;20156;-77
2023/03/13 17:06:52;;;;;;;1.38;1.10;;;;;;;;;;8241850;28;20687;-77
2023/03/13 17:10:52;;;;;;;3.08;0.90;;;;;;;;;;8242848;28;20022;-77
2023/03/13 17:14:53;;;;;;;1.90;1.10;;;;;;;;;;8256548;28;20017;-77
2023/03/13 17:18:53;;;;;;;1.23;0.90;;;;;;;;;;8239412;28;20074;-77
2023/03/13 17:22:55;;;;;;;2.47;0.93;;;;;;;;;;8237208;28;20407;-77
2023/03/13 17:26:55;;;;;;;1.70;1.27;;;;;;;;;;8240772;28;20014;-77
2023/03/13 17:30:55;;;;;;;1.63;1.00;;;;;;;;;;8242895;28;20107;-77
2023/03/13 17:34:55;;;;;;;3.15;1.10;;;;;;;;;;8239994;28;20211;-77
2023/03/13 17:38:57;;;;;;;1.58;1.00;;;;;;;;;;8240931;28;20037;-77
2023/03/13 17:42:57;;;;;;;1.10;1.00;;;;;;;;;;8242279;28;20106;-76
2023/03/13 17:46:57;;;;;;;1.45;1.20;;;;;;;;;;8239343;28;20069;-77
2023/03/13 17:50:58;;;;;;;2.88;1.13;;;;;;;;;;8237078;28;20022;-78
2023/03/13 17:54:58;;;;;;;1.67;1.42;;;;;;;;;;8238007;28;20962;-76
2023/03/13 17:58:59;;;;;;;4.15;1.60;;;;;;;;;;8235593;28;20882;-76
2023/03/13 18:02:59;;;;;;;3.33;1.23;;;;;;;;;;8215935;28;20360;-77
2023/03/13 18:06:59;;;;;;;1.60;1.10;;;;;;;;;;8213953;28;20971;-75
2023/03/13 18:11:00;;;;;;;3.28;1.70;;;;;;;;;;8211581;28;20030;-76
2023/03/13 18:15:00;;;;;;;2.70;1.40;;;;;;;;;;8203840;28;20030;-79
2023/03/13 18:19:00;;;;;;;1.65;1.40;;;;;;;;;;8234126;28;20112;-75
2023/03/13 18:23:00;;;;;;;2.00;1.35;;;;;;;;;;8240252;28;20041;-75
2023/03/13 18:27:01;;;;;;;1.75;1.20;;;;;;;;;;8241474;28;20094;-75
2023/03/13 18:31:01;;;;;;;1.48;1.23;;;;;;;;;;8240434;28;20038;-75
2023/03/13 18:35:01;;;;;;;1.15;1.10;;;;;;;;;;8239937;28;20470;-75
2023/03/13 18:39:03;;;;;;;1.50;1.20;;;;;;;;;;8240265;28;20595;-75
2023/03/13 18:43:03;;;;;;;1.38;1.17;;;;;;;;;;8246863;28;20145;-75
2023/03/13 18:47:27;;;;;;;1.55;1.10;;;;;;;;;;8242911;28;20058;-75
2023/03/13 18:51:27;;;;;;;2.15;1.00;;;;;;;;;;8239885;28;20026;-75
2023/03/13 18:55:29;;;;;;;0.80;0.80;;;;;;;;;;8241556;28;20038;-75
2023/03/13 18:59:29;;;;;;;0.70;0.70;;;;;;;;;;8245364;28;20041;-75
2023/03/13 19:03:29;;;;;;;1.63;0.90;;;;;;;;;;8242286;28;20042;-75
2023/03/13 19:07:29;;;;;;;1.05;0.70;;;;;;;;;;8241578;28;20065;-75
2023/03/13 19:11:30;;;;;;;2.23;1.00;;;;;;;;;;8240458;28;20022;-75
2023/03/13 19:15:30;;;;;;;1.63;0.90;;;;;;;;;;8244247;28;20265;-75
2023/03/13 19:19:31;;;;;;;1.20;1.00;;;;;;;;;;8239379;28;20026;-75
2023/03/13 19:23:31;;;;;;;1.05;0.80;;;;;;;;;;8239397;28;20095;-75
2023/03/13 19:27:31;;;;;;;2.22;0.60;;;;;;;;;;8249554;28;20651;-75
2023/03/13 19:31:31;;;;;;;0.70;0.60;;;;;;;;;;8240136;28;20136;-75
2023/03/13 19:35:32;;;;;;;1.10;0.75;;;;;;;;;;8239616;28;20384;-75
2023/03/13 19:39:33;;;;;;;0.75;0.60;;;;;;;;;;8254732;28;20026;-75
2023/03/13 19:43:33;;;;;;;2.05;0.55;;;;;;;;;;8237974;28;21144;-75
2023/03/13 19:47:34;;;;;;;0.77;0.60;;;;;;;;;;8237825;28;20600;-75
2023/03/13 19:51:34;;;;;;;0.73;0.55;;;;;;;;;;8238228;28;20033;-75
2023/03/13 19:55:34;;;;;;;0.70;0.60;;;;;;;;;;8250471;28;20795;-75
2023/03/13 19:59:37;;;;;;;2.40;0.60;;;;;;;;;;8233541;28;20136;-76
2023/03/13 20:03:37;;;;;;;0.45;0.45;;;;;;;;;;8236655;28;20034;-76
2023/03/13 20:07:38;;;;;;;1.27;0.60;;;;;;;;;;8237734;28;20048;-76
2023/03/13 20:11:38;;;;;;;1.00;0.70;;;;;;;;;;8237796;28;20674;-75
2023/03/13 20:15:38;;;;;;;0.60;0.60;;;;;;;;;;8237105;28;20038;-76
2023/03/13 20:19:38;;;;;;;1.15;0.60;;;;;;;;;;8235699;28;20605;-76
2023/03/13 20:23:38;;;;;;;2.35;0.60;;;;;;;;;;8234493;28;20037;-76
2023/03/13 20:27:39;;;;;;;1.27;0.57;;;;;;;;;;8237189;28;20026;-76
2023/03/13 20:31:39;;;;;;;0.60;0.60;;;;;;;;;;8237304;28;20209;-76
2023/03/13 20:35:39;;;;;;;1.58;0.50;;;;;;;;;;8238687;28;20566;-76
2023/03/13 20:39:40;;;;;;;0.60;0.60;;;;;;;;;;8239076;28;20030;-76
2023/03/13 20:43:41;;;;;;;0.95;0.80;;;;;;;;;;8235652;28;21036;-76
2023/03/13 20:47:41;;;;;;;1.15;0.60;;;;;;;;;;8235811;28;20156;-76
2023/03/13 20:51:41;;;;;;;1.05;0.60;;;;;;;;;;8238630;28;20050;-76
2023/03/13 20:55:41;;;;;;;0.50;0.50;;;;;;;;;;8237832;28;20033;-76
2023/03/13 20:59:41;;;;;;;0.60;0.50;;;;;;;;;;8235289;28;20087;-76
2023/03/13 21:03:42;;;;;;;0.60;0.60;;;;;;;;;;8235982;28;20037;-75
2023/03/13 21:07:42;;;;;;;0.55;0.55;;;;;;;;;;8237831;28;20026;-75
2023/03/13 21:11:42;;;;;;;1.80;0.80;;;;;;;;;;8238762;28;20095;-76
2023/03/13 21:15:42;;;;;;;0.60;0.60;;;;;;;;;;8242530;28;20145;-75
2023/03/13 21:19:42;;;;;;;0.50;0.50;;;;;;;;;;8239486;28;20207;-75
2023/03/13 21:23:43;;;;;;;1.38;0.70;;;;;;;;;;8244288;28;20034;-75
2023/03/13 21:27:43;;;;;;;2.78;0.70;;;;;;;;;;8244801;28;20469;-75
2023/03/13 21:31:43;;;;;;;0.60;0.60;;;;;;;;;;8245631;28;20572;-75
2023/03/13 21:35:44;;;;;;;0.60;0.60;;;;;;;;;;8242539;28;20037;-76
2023/03/13 21:39:48;;;;;;;1.13;1.05;;;;;;;;;;8241684;28;20150;-75
2023/03/13 21:43:48;;;;;;;1.02;0.63;;;;;;;;;;8242344;28;20099;-75
2023/03/13 21:47:49;;;;;;;1.70;0.68;;;;;;;;;;8240172;28;20069;-75
2023/03/13 21:51:49;;;;;;;2.10;0.70;;;;;;;;;;8242096;28;20026;-75
2023/03/13 21:55:49;;;;;;;1.55;0.70;;;;;;;;;;8240896;28;20084;-75
2023/03/13 21:59:49;;;;;;;0.50;0.50;;;;;;;;;;8220747;28;20088;-79
2023/03/13 22:03:50;;;;;;;1.33;0.70;;;;;;;;;;8202856;28;20033;-76
2023/03/13 22:07:50;;;;;;;1.15;0.80;;;;;;;;;;8209033;28;20034;-75
2023/03/13 22:11:50;;;;;;;1.17;0.60;;;;;;;;;;8219669;28;20140;-75
2023/03/13 22:15:51;;;;;;;0.60;0.60;;;;;;;;;;8242744;28;20065;-76
2023/03/13 22:19:51;;;;;;;5.35;0.80;;;;;;;;;;8239040;28;20036;-76
2023/03/13 22:23:51;;;;;;;1.90;0.80;;;;;;;;;;8241245;28;20022;-75
2023/03/13 22:27:52;;;;;;;1.83;0.80;;;;;;;;;;8238864;28;20098;-75
2023/03/13 22:31:52;;;;;;;1.80;0.80;;;;;;;;;;8240135;28;20153;-75
2023/03/13 22:35:52;;;;;;;2.17;0.90;;;;;;;;;;8242615;28;20030;-76
2023/03/13 22:39:53;;;;;;;1.07;0.80;;;;;;;;;;8239672;28;20116;-76
2023/03/13 22:43:53;;;;;;;0.80;0.80;;;;;;;;;;8239525;28;20072;-76
2023/03/13 22:47:53;;;;;;;1.83;1.00;;;;;;;;;;8238594;28;20128;-76
2023/03/13 22:51:53;;;;;;;2.80;1.00;;;;;;;;;;8238567;28;20030;-76
2023/03/13 22:55:53;;;;;;;2.40;0.90;;;;;;;;;;8239237;28;20042;-76
2023/03/13 22:59:54;;;;;;;1.88;0.90;;;;;;;;;;8240406;28;20041;-76
2023/03/13 23:03:54;;;;;;;2.08;0.93;;;;;;;;;;8240238;28;20034;-76
2023/03/13 23:07:55;;;;;;;2.58;1.10;;;;;;;;;;8238743;28;20788;-76
2023/03/13 23:11:55;;;;;;;4.30;0.90;;;;;;;;;;8239041;28;20168;-76
2023/03/13 23:15:55;;;;;;;1.80;0.90;;;;;;;;;;8238047;28;20034;-76
2023/03/13 23:19:55;;;;;;;1.70;0.85;;;;;;;;;;8237471;28;20024;-76
2023/03/13 23:23:55;;;;;;;3.27;1.30;;;;;;;;;;8241017;28;20107;-75
2023/03/13 23:27:56;;;;;;;2.92;0.90;;;;;;;;;;8237556;28;20269;-75
2023/03/13 23:31:56;;;;;;;5.82;1.10;;;;;;;;;;8238656;28;20119;-76
2023/03/13 23:35:56;;;;;;;5.60;1.20;;;;;;;;;;8254278;28;20022;-76
2023/03/13 23:39:58;;;;;;;5.10;1.30;;;;;;;;;;8238328;28;20057;-76
2023/03/13 23:43:59;;;;;;;2.97;1.00;;;;;;;;;;8236815;28;20113;-76
2023/03/13 23:47:59;;;;;;;2.42;1.00;;;;;;;;;;8237067;28;20038;-76
2023/03/13 23:52:00;;;;;;;3.13;1.17;;;;;;;;;;8235721;28;20052;-75
2023/03/13 23:56:01;;;;;;;6.57;1.23;;;;;;;;;;8241031;28;20148;-76
